Sanderson, Texas
Current Conditions -  °F | °C
As of 4:53 AM on Friday 31 Oct 2014 (Local Time) from KFST Reporting Station
Overcast Overcast  
Wind Chill: 61°   Ceiling: 2200
Heat Index: 61°   Visibility: 10mi
Dew Point: 54°   Wind: 5mph
Humidity: 78%   Direction: 40°NE
Pressure: 30.28"   Gusts: NA
Location:  30.14°N, 102.4°W
Report Text: KFST 310953Z AUTO 04004KT 10SM OVC022 16/12 A3028 RMK AO2 SLP211 T01610122
Loading
Personal Weather Stations






























Interactive Weather Map
Tropical Storm Tracking
New forecast layout! Learn more

10-Day Weather Forecast

Advertisements
Track Severe Weather on mobile